sensor_id;sensor_type;location;lat;lon;timestamp;temperature;humidity
2459;DHT22;1241;50.920;6.936;2023-02-14T00:00:17;6.40;99.90
2459;DHT22;1241;50.920;6.936;2023-02-14T00:02:43;6.40;99.90
2459;DHT22;1241;50.920;6.936;2023-02-14T00:05:08;6.30;99.90
2459;DHT22;1241;50.920;6.936;2023-02-14T00:07:34;6.30;99.90
2459;DHT22;1241;50.920;6.936;2023-02-14T00:10:00;6.30;99.90
2459;DHT22;1241;50.920;6.936;2023-02-14T00:12:28;6.30;99.90
2459;DHT22;1241;50.920;6.936;2023-02-14T00:14:54;6.20;99.90
2459;DHT22;1241;50.920;6.936;2023-02-14T00:17:41;6.20;99.90
2459;DHT22;1241;50.920;6.936;2023-02-14T00:20:10;6.20;99.90
2459;DHT22;1241;50.920;6.936;2023-02-14T00:22:36;6.10;99.90
2459;DHT22;1241;50.920;6.936;2023-02-14T00:25:02;6.10;99.90
2459;DHT22;1241;50.920;6.936;2023-02-14T00:27:27;6.10;99.90
2459;DHT22;1241;50.920;6.936;2023-02-14T00:29:53;6.10;99.90
2459;DHT22;1241;50.920;6.936;2023-02-14T00:32:20;6.10;99.90
2459;DHT22;1241;50.920;6.936;2023-02-14T00:34:46;5.90;99.90
2459;DHT22;1241;50.920;6.936;2023-02-14T00:37:12;5.90;99.90
2459;DHT22;1241;50.920;6.936;2023-02-14T00:39:37;5.90;99.90
2459;DHT22;1241;50.920;6.936;2023-02-14T00:42:04;5.90;99.90
2459;DHT22;1241;50.920;6.936;2023-02-14T00:44:30;5.80;99.90
2459;DHT22;1241;50.920;6.936;2023-02-14T00:46:56;5.80;99.90
2459;DHT22;1241;50.920;6.936;2023-02-14T00:49:22;5.80;99.90
2459;DHT22;1241;50.920;6.936;2023-02-14T00:51:48;5.80;99.90
2459;DHT22;1241;50.920;6.936;2023-02-14T00:54:13;5.70;99.90
2459;DHT22;1241;50.920;6.936;2023-02-14T00:56:39;5.70;99.90
2459;DHT22;1241;50.920;6.936;2023-02-14T00:59:07;5.60;99.90
2459;DHT22;1241;50.920;6.936;2023-02-14T01:01:33;5.60;99.90
2459;DHT22;1241;50.920;6.936;2023-02-14T01:03:59;5.60;99.90
2459;DHT22;1241;50.920;6.936;2023-02-14T01:06:25;5.60;99.90
2459;DHT22;1241;50.920;6.936;2023-02-14T01:08:50;5.60;99.90
2459;DHT22;1241;50.920;6.936;2023-02-14T01:11:19;5.50;99.90
2459;DHT22;1241;50.920;6.936;2023-02-14T01:13:45;5.50;99.90
2459;DHT22;1241;50.920;6.936;2023-02-14T01:16:18;5.50;99.90
2459;DHT22;1241;50.920;6.936;2023-02-14T01:18:44;5.50;99.90
2459;DHT22;1241;50.920;6.936;2023-02-14T01:23:39;5.40;99.90
2459;DHT22;1241;50.920;6.936;2023-02-14T01:26:06;5.40;99.90
2459;DHT22;1241;50.920;6.936;2023-02-14T01:28:32;5.40;99.90
2459;DHT22;1241;50.920;6.936;2023-02-14T01:31:08;5.30;99.90
2459;DHT22;1241;50.920;6.936;2023-02-14T01:33:34;5.40;99.90
2459;DHT22;1241;50.920;6.936;2023-02-14T01:36:00;5.30;99.90
2459;DHT22;1241;50.920;6.936;2023-02-14T01:38:26;5.30;99.90
2459;DHT22;1241;50.920;6.936;2023-02-14T01:40:51;5.30;99.90
2459;DHT22;1241;50.920;6.936;2023-02-14T01:43:17;5.30;99.90
2459;DHT22;1241;50.920;6.936;2023-02-14T01:45:43;5.30;99.90
2459;DHT22;1241;50.920;6.936;2023-02-14T01:48:09;5.30;99.90
2459;DHT22;1241;50.920;6.936;2023-02-14T01:50:39;5.30;99.90
2459;DHT22;1241;50.920;6.936;2023-02-14T01:53:10;5.20;99.90
2459;DHT22;1241;50.920;6.936;2023-02-14T01:55:43;5.20;99.90
2459;DHT22;1241;50.920;6.936;2023-02-14T01:58:21;5.20;99.90
2459;DHT22;1241;50.920;6.936;2023-02-14T02:00:49;5.10;99.90
2459;DHT22;1241;50.920;6.936;2023-02-14T02:05:56;5.10;99.90
2459;DHT22;1241;50.920;6.936;2023-02-14T02:08:23;5.10;99.90
2459;DHT22;1241;50.920;6.936;2023-02-14T02:10:49;5.00;99.90
2459;DHT22;1241;50.920;6.936;2023-02-14T02:13:20;5.10;99.90
2459;DHT22;1241;50.920;6.936;2023-02-14T02:16:03;5.10;99.90
2459;DHT22;1241;50.920;6.936;2023-02-14T02:18:51;5.10;99.90
2459;DHT22;1241;50.920;6.936;2023-02-14T02:27:06;4.90;99.90
2459;DHT22;1241;50.920;6.936;2023-02-14T02:33:23;4.80;99.90
2459;DHT22;1241;50.920;6.936;2023-02-14T02:36:20;4.80;99.90
2459;DHT22;1241;50.920;6.936;2023-02-14T02:44:20;4.70;99.90
2459;DHT22;1241;50.920;6.936;2023-02-14T02:47:09;4.70;99.90
2459;DHT22;1241;50.920;6.936;2023-02-14T02:58:26;4.60;99.90
2459;DHT22;1241;50.920;6.936;2023-02-14T03:00:56;4.50;99.90
2459;DHT22;1241;50.920;6.936;2023-02-14T03:03:24;4.50;99.90
2459;DHT22;1241;50.920;6.936;2023-02-14T03:06:10;4.50;99.90
2459;DHT22;1241;50.920;6.936;2023-02-14T03:08:36;4.50;99.90
2459;DHT22;1241;50.920;6.936;2023-02-14T03:11:03;4.50;99.90
2459;DHT22;1241;50.920;6.936;2023-02-14T03:21:05;4.50;99.90
2459;DHT22;1241;50.920;6.936;2023-02-14T03:23:42;4.50;99.90
2459;DHT22;1241;50.920;6.936;2023-02-14T03:31:53;4.40;99.90
2459;DHT22;1241;50.920;6.936;2023-02-14T03:34:36;4.40;99.90
2459;DHT22;1241;50.920;6.936;2023-02-14T03:37:13;4.30;99.90
2459;DHT22;1241;50.920;6.936;2023-02-14T03:39:44;4.30;99.90
2459;DHT22;1241;50.920;6.936;2023-02-14T03:43:09;4.20;99.90
2459;DHT22;1241;50.920;6.936;2023-02-14T03:45:15;4.20;99.90
2459;DHT22;1241;50.920;6.936;2023-02-14T03:47:43;4.20;99.90
2459;DHT22;1241;50.920;6.936;2023-02-14T03:50:15;4.20;99.90
2459;DHT22;1241;50.920;6.936;2023-02-14T03:52:43;4.20;99.90
2459;DHT22;1241;50.920;6.936;2023-02-14T03:55:15;4.10;99.90
2459;DHT22;1241;50.920;6.936;2023-02-14T03:57:46;4.10;99.90
2459;DHT22;1241;50.920;6.936;2023-02-14T04:00:14;4.10;99.90
2459;DHT22;1241;50.920;6.936;2023-02-14T04:02:47;4.10;99.90
2459;DHT22;1241;50.920;6.936;2023-02-14T04:05:21;4.20;99.90
2459;DHT22;1241;50.920;6.936;2023-02-14T04:07:51;4.20;99.90
2459;DHT22;1241;50.920;6.936;2023-02-14T04:10:18;4.20;99.90
2459;DHT22;1241;50.920;6.936;2023-02-14T04:12:44;4.20;99.90
2459;DHT22;1241;50.920;6.936;2023-02-14T04:15:10;4.20;99.90
2459;DHT22;1241;50.920;6.936;2023-02-14T04:17:37;4.20;99.90
2459;DHT22;1241;50.920;6.936;2023-02-14T04:20:21;4.20;99.90
2459;DHT22;1241;50.920;6.936;2023-02-14T04:22:47;4.20;99.90
2459;DHT22;1241;50.920;6.936;2023-02-14T04:25:14;4.20;99.90
2459;DHT22;1241;50.920;6.936;2023-02-14T04:27:39;4.20;99.90
2459;DHT22;1241;50.920;6.936;2023-02-14T04:30:06;4.20;99.90
2459;DHT22;1241;50.920;6.936;2023-02-14T04:32:32;4.20;99.90
2459;DHT22;1241;50.920;6.936;2023-02-14T04:34:57;4.20;99.90
2459;DHT22;1241;50.920;6.936;2023-02-14T04:37:23;4.20;99.90
2459;DHT22;1241;50.920;6.936;2023-02-14T04:39:49;4.20;99.90
2459;DHT22;1241;50.920;6.936;2023-02-14T04:42:15;4.20;99.90
2459;DHT22;1241;50.920;6.936;2023-02-14T04:44:41;4.20;99.90
2459;DHT22;1241;50.920;6.936;2023-02-14T04:47:07;4.20;99.90
2459;DHT22;1241;50.920;6.936;2023-02-14T04:49:33;4.20;99.90
2459;DHT22;1241;50.920;6.936;2023-02-14T04:52:00;4.20;99.90
2459;DHT22;1241;50.920;6.936;2023-02-14T04:54:25;4.10;99.90
2459;DHT22;1241;50.920;6.936;2023-02-14T04:56:51;4.10;99.90
2459;DHT22;1241;50.920;6.936;2023-02-14T04:59:17;4.10;99.90
2459;DHT22;1241;50.920;6.936;2023-02-14T05:01:43;4.10;99.90
2459;DHT22;1241;50.920;6.936;2023-02-14T05:04:09;4.00;99.90
2459;DHT22;1241;50.920;6.936;2023-02-14T05:06:35;4.00;99.90
2459;DHT22;1241;50.920;6.936;2023-02-14T05:09:01;4.00;99.90
2459;DHT22;1241;50.920;6.936;2023-02-14T05:11:28;3.90;99.90
2459;DHT22;1241;50.920;6.936;2023-02-14T05:13:54;3.90;99.90
2459;DHT22;1241;50.920;6.936;2023-02-14T05:16:20;3.90;99.90
2459;DHT22;1241;50.920;6.936;2023-02-14T05:18:46;3.90;99.90
2459;DHT22;1241;50.920;6.936;2023-02-14T05:21:12;3.90;99.90
2459;DHT22;1241;50.920;6.936;2023-02-14T05:23:38;3.90;99.90
2459;DHT22;1241;50.920;6.936;2023-02-14T05:26:04;4.00;99.90
2459;DHT22;1241;50.920;6.936;2023-02-14T05:28:30;4.00;99.90
2459;DHT22;1241;50.920;6.936;2023-02-14T05:30:56;4.00;99.90
2459;DHT22;1241;50.920;6.936;2023-02-14T05:33:23;4.00;99.90
2459;DHT22;1241;50.920;6.936;2023-02-14T05:35:48;4.00;99.90
2459;DHT22;1241;50.920;6.936;2023-02-14T05:38:14;4.00;99.90
2459;DHT22;1241;50.920;6.936;2023-02-14T05:40:40;3.90;99.90
2459;DHT22;1241;50.920;6.936;2023-02-14T05:43:07;3.90;99.90
2459;DHT22;1241;50.920;6.936;2023-02-14T05:45:33;3.90;99.90
2459;DHT22;1241;50.920;6.936;2023-02-14T05:47:58;3.90;99.90
2459;DHT22;1241;50.920;6.936;2023-02-14T05:50:24;3.90;99.90
2459;DHT22;1241;50.920;6.936;2023-02-14T05:52:52;3.80;99.90
2459;DHT22;1241;50.920;6.936;2023-02-14T05:55:18;3.80;99.90
2459;DHT22;1241;50.920;6.936;2023-02-14T05:57:44;3.80;99.90
2459;DHT22;1241;50.920;6.936;2023-02-14T06:00:10;3.80;99.90
2459;DHT22;1241;50.920;6.936;2023-02-14T06:02:39;3.80;99.90
2459;DHT22;1241;50.920;6.936;2023-02-14T06:05:06;3.80;99.90
2459;DHT22;1241;50.920;6.936;2023-02-14T06:07:32;3.70;99.90
2459;DHT22;1241;50.920;6.936;2023-02-14T06:09:58;3.70;99.90
2459;DHT22;1241;50.920;6.936;2023-02-14T06:12:23;3.70;99.90
2459;DHT22;1241;50.920;6.936;2023-02-14T06:14:49;3.60;99.90
2459;DHT22;1241;50.920;6.936;2023-02-14T06:17:15;3.60;99.90
2459;DHT22;1241;50.920;6.936;2023-02-14T06:19:40;3.60;99.90
2459;DHT22;1241;50.920;6.936;2023-02-14T06:22:08;3.60;99.90
2459;DHT22;1241;50.920;6.936;2023-02-14T06:24:33;3.50;99.90
2459;DHT22;1241;50.920;6.936;2023-02-14T06:26:59;3.50;99.90
2459;DHT22;1241;50.920;6.936;2023-02-14T06:29:25;3.50;99.90
2459;DHT22;1241;50.920;6.936;2023-02-14T06:31:51;3.50;99.90
2459;DHT22;1241;50.920;6.936;2023-02-14T06:34:17;3.50;99.90
2459;DHT22;1241;50.920;6.936;2023-02-14T06:36:43;3.50;99.90
2459;DHT22;1241;50.920;6.936;2023-02-14T06:39:08;3.50;99.90
2459;DHT22;1241;50.920;6.936;2023-02-14T06:41:34;3.50;99.90
2459;DHT22;1241;50.920;6.936;2023-02-14T06:44:01;3.50;99.90
2459;DHT22;1241;50.920;6.936;2023-02-14T06:46:27;3.50;99.90
2459;DHT22;1241;50.920;6.936;2023-02-14T06:48:52;3.50;99.90
2459;DHT22;1241;50.920;6.936;2023-02-14T06:51:18;3.50;99.90
2459;DHT22;1241;50.920;6.936;2023-02-14T06:53:43;3.50;99.90
2459;DHT22;1241;50.920;6.936;2023-02-14T06:56:09;3.50;99.90
2459;DHT22;1241;50.920;6.936;2023-02-14T06:58:35;3.50;99.90
2459;DHT22;1241;50.920;6.936;2023-02-14T07:01:01;3.50;99.90
2459;DHT22;1241;50.920;6.936;2023-02-14T07:03:27;3.60;99.90
2459;DHT22;1241;50.920;6.936;2023-02-14T07:05:53;3.60;99.90
2459;DHT22;1241;50.920;6.936;2023-02-14T07:08:19;3.60;99.90
2459;DHT22;1241;50.920;6.936;2023-02-14T07:10:45;3.60;99.90
2459;DHT22;1241;50.920;6.936;2023-02-14T07:13:11;3.60;99.90
2459;DHT22;1241;50.920;6.936;2023-02-14T07:15:37;3.70;99.90
2459;DHT22;1241;50.920;6.936;2023-02-14T07:18:03;3.70;99.90
2459;DHT22;1241;50.920;6.936;2023-02-14T07:20:29;3.70;99.90
2459;DHT22;1241;50.920;6.936;2023-02-14T07:22:55;3.70;99.90
2459;DHT22;1241;50.920;6.936;2023-02-14T07:25:21;3.80;99.90
2459;DHT22;1241;50.920;6.936;2023-02-14T07:27:47;3.80;99.90
2459;DHT22;1241;50.920;6.936;2023-02-14T07:30:13;3.90;99.90
2459;DHT22;1241;50.920;6.936;2023-02-14T07:32:39;3.90;99.90
2459;DHT22;1241;50.920;6.936;2023-02-14T07:35:05;4.00;99.90
2459;DHT22;1241;50.920;6.936;2023-02-14T07:37:32;4.00;99.90
2459;DHT22;1241;50.920;6.936;2023-02-14T07:39:58;4.10;99.90
2459;DHT22;1241;50.920;6.936;2023-02-14T07:42:24;4.20;99.90
2459;DHT22;1241;50.920;6.936;2023-02-14T07:44:49;4.30;99.90
2459;DHT22;1241;50.920;6.936;2023-02-14T07:47:15;4.30;99.90
2459;DHT22;1241;50.920;6.936;2023-02-14T07:49:41;4.20;99.90
2459;DHT22;1241;50.920;6.936;2023-02-14T07:52:06;4.30;99.90
2459;DHT22;1241;50.920;6.936;2023-02-14T07:54:33;4.30;99.90
2459;DHT22;1241;50.920;6.936;2023-02-14T07:56:59;4.40;99.90
2459;DHT22;1241;50.920;6.936;2023-02-14T07:59:24;4.50;99.90
2459;DHT22;1241;50.920;6.936;2023-02-14T08:01:50;4.60;99.90
2459;DHT22;1241;50.920;6.936;2023-02-14T08:04:16;4.60;99.90
2459;DHT22;1241;50.920;6.936;2023-02-14T08:06:42;4.60;99.90
2459;DHT22;1241;50.920;6.936;2023-02-14T08:09:08;4.70;99.90
2459;DHT22;1241;50.920;6.936;2023-02-14T08:11:50;4.70;99.90
2459;DHT22;1241;50.920;6.936;2023-02-14T08:14:35;4.80;99.90
2459;DHT22;1241;50.920;6.936;2023-02-14T08:17:01;4.90;99.90
2459;DHT22;1241;50.920;6.936;2023-02-14T08:19:27;5.00;99.90
2459;DHT22;1241;50.920;6.936;2023-02-14T08:21:53;5.10;99.90
2459;DHT22;1241;50.920;6.936;2023-02-14T08:24:18;5.10;99.90
2459;DHT22;1241;50.920;6.936;2023-02-14T08:26:44;5.20;99.90
2459;DHT22;1241;50.920;6.936;2023-02-14T08:29:10;5.30;99.90
2459;DHT22;1241;50.920;6.936;2023-02-14T08:31:35;5.40;99.90
2459;DHT22;1241;50.920;6.936;2023-02-14T08:34:03;5.50;99.90
2459;DHT22;1241;50.920;6.936;2023-02-14T08:36:29;5.60;99.90
2459;DHT22;1241;50.920;6.936;2023-02-14T08:38:55;5.60;99.90
2459;DHT22;1241;50.920;6.936;2023-02-14T08:41:22;5.70;99.90
2459;DHT22;1241;50.920;6.936;2023-02-14T08:43:48;5.90;99.90
2459;DHT22;1241;50.920;6.936;2023-02-14T08:46:14;5.90;99.90
2459;DHT22;1241;50.920;6.936;2023-02-14T08:48:41;5.90;99.90
2459;DHT22;1241;50.920;6.936;2023-02-14T08:51:09;6.10;99.90
2459;DHT22;1241;50.920;6.936;2023-02-14T08:53:35;6.20;99.90
2459;DHT22;1241;50.920;6.936;2023-02-14T08:56:06;6.30;99.90
2459;DHT22;1241;50.920;6.936;2023-02-14T08:58:32;6.40;99.90
2459;DHT22;1241;50.920;6.936;2023-02-14T09:01:01;6.30;99.90
2459;DHT22;1241;50.920;6.936;2023-02-14T09:03:26;6.40;99.90
2459;DHT22;1241;50.920;6.936;2023-02-14T09:05:52;6.40;99.90
2459;DHT22;1241;50.920;6.936;2023-02-14T09:08:18;6.40;99.90
2459;DHT22;1241;50.920;6.936;2023-02-14T09:10:44;6.50;99.90
2459;DHT22;1241;50.920;6.936;2023-02-14T09:13:09;6.60;99.90
2459;DHT22;1241;50.920;6.936;2023-02-14T09:15:35;6.60;99.90
2459;DHT22;1241;50.920;6.936;2023-02-14T09:18:01;6.60;99.90
2459;DHT22;1241;50.920;6.936;2023-02-14T09:20:26;6.70;99.90
2459;DHT22;1241;50.920;6.936;2023-02-14T09:22:54;6.70;99.90
2459;DHT22;1241;50.920;6.936;2023-02-14T09:25:21;6.80;99.90
2459;DHT22;1241;50.920;6.936;2023-02-14T09:27:46;6.90;99.90
2459;DHT22;1241;50.920;6.936;2023-02-14T09:30:13;7.00;99.90
2459;DHT22;1241;50.920;6.936;2023-02-14T09:32:39;7.00;99.90
2459;DHT22;1241;50.920;6.936;2023-02-14T09:35:05;6.90;99.90
2459;DHT22;1241;50.920;6.936;2023-02-14T09:37:49;7.00;99.90
2459;DHT22;1241;50.920;6.936;2023-02-14T09:40:34;7.10;99.90
2459;DHT22;1241;50.920;6.936;2023-02-14T09:45:32;7.30;99.90
2459;DHT22;1241;50.920;6.936;2023-02-14T09:53:26;7.60;99.90
2459;DHT22;1241;50.920;6.936;2023-02-14T09:59:04;7.70;99.90
2459;DHT22;1241;50.920;6.936;2023-02-14T10:01:50;7.80;99.90
2459;DHT22;1241;50.920;6.936;2023-02-14T10:04:40;7.80;99.90
2459;DHT22;1241;50.920;6.936;2023-02-14T10:10:02;8.10;99.90
2459;DHT22;1241;50.920;6.936;2023-02-14T10:13:00;8.20;99.90
2459;DHT22;1241;50.920;6.936;2023-02-14T10:15:27;8.30;99.90
2459;DHT22;1241;50.920;6.936;2023-02-14T10:18:21;8.30;99.90
2459;DHT22;1241;50.920;6.936;2023-02-14T10:20:55;8.50;99.90
2459;DHT22;1241;50.920;6.936;2023-02-14T10:23:29;8.50;99.90
2459;DHT22;1241;50.920;6.936;2023-02-14T10:26:11;8.50;99.90
2459;DHT22;1241;50.920;6.936;2023-02-14T10:28:43;8.50;99.90
2459;DHT22;1241;50.920;6.936;2023-02-14T10:31:36;8.50;99.90
2459;DHT22;1241;50.920;6.936;2023-02-14T10:34:15;8.60;99.90
2459;DHT22;1241;50.920;6.936;2023-02-14T10:36:55;8.60;99.90
2459;DHT22;1241;50.920;6.936;2023-02-14T10:50:48;9.00;99.90
2459;DHT22;1241;50.920;6.936;2023-02-14T10:53:27;9.00;99.90
2459;DHT22;1241;50.920;6.936;2023-02-14T10:56:01;9.20;99.90
2459;DHT22;1241;50.920;6.936;2023-02-14T10:58:33;9.20;99.90
2459;DHT22;1241;50.920;6.936;2023-02-14T11:01:14;9.40;99.90
2459;DHT22;1241;50.920;6.936;2023-02-14T11:03:43;9.50;99.90
2459;DHT22;1241;50.920;6.936;2023-02-14T11:06:15;9.60;99.90
2459;DHT22;1241;50.920;6.936;2023-02-14T11:08:40;9.60;99.90
2459;DHT22;1241;50.920;6.936;2023-02-14T11:11:29;9.60;99.90
2459;DHT22;1241;50.920;6.936;2023-02-14T11:13:56;9.70;99.90
2459;DHT22;1241;50.920;6.936;2023-02-14T11:16:35;9.80;99.90
2459;DHT22;1241;50.920;6.936;2023-02-14T11:21:41;9.80;99.90
2459;DHT22;1241;50.920;6.936;2023-02-14T11:24:25;9.90;99.90
2459;DHT22;1241;50.920;6.936;2023-02-14T11:27:03;10.00;99.90
2459;DHT22;1241;50.920;6.936;2023-02-14T11:29:41;10.00;99.90
2459;DHT22;1241;50.920;6.936;2023-02-14T11:32:10;10.10;99.90
2459;DHT22;1241;50.920;6.936;2023-02-14T11:34:40;10.10;99.90
2459;DHT22;1241;50.920;6.936;2023-02-14T11:37:40;10.20;99.90
2459;DHT22;1241;50.920;6.936;2023-02-14T11:40:22;10.30;99.90
2459;DHT22;1241;50.920;6.936;2023-02-14T11:42:50;10.40;99.90
2459;DHT22;1241;50.920;6.936;2023-02-14T11:45:32;10.40;99.90
2459;DHT22;1241;50.920;6.936;2023-02-14T11:50:52;10.40;99.90
2459;DHT22;1241;50.920;6.936;2023-02-14T11:53:22;10.40;99.90
2459;DHT22;1241;50.920;6.936;2023-02-14T11:55:53;10.40;99.90
2459;DHT22;1241;50.920;6.936;2023-02-14T11:58:35;10.50;99.90
2459;DHT22;1241;50.920;6.936;2023-02-14T12:01:02;10.60;99.90
2459;DHT22;1241;50.920;6.936;2023-02-14T12:03:36;10.80;99.90
2459;DHT22;1241;50.920;6.936;2023-02-14T12:06:03;11.00;99.90
2459;DHT22;1241;50.920;6.936;2023-02-14T12:08:30;11.10;99.90
2459;DHT22;1241;50.920;6.936;2023-02-14T12:11:01;11.00;99.90
2459;DHT22;1241;50.920;6.936;2023-02-14T12:13:29;11.00;99.90
2459;DHT22;1241;50.920;6.936;2023-02-14T12:15:56;10.90;99.90
2459;DHT22;1241;50.920;6.936;2023-02-14T12:18:49;11.00;99.90
2459;DHT22;1241;50.920;6.936;2023-02-14T12:24:19;10.90;99.90
2459;DHT22;1241;50.920;6.936;2023-02-14T12:29:45;11.10;99.90
2459;DHT22;1241;50.920;6.936;2023-02-14T12:34:46;11.10;99.90
2459;DHT22;1241;50.920;6.936;2023-02-14T12:37:18;11.10;99.90
2459;DHT22;1241;50.920;6.936;2023-02-14T12:45:22;11.20;99.90
2459;DHT22;1241;50.920;6.936;2023-02-14T12:47:52;11.20;99.90
2459;DHT22;1241;50.920;6.936;2023-02-14T12:53:34;11.40;99.90
2459;DHT22;1241;50.920;6.936;2023-02-14T12:59:07;11.40;99.90
2459;DHT22;1241;50.920;6.936;2023-02-14T13:04:28;11.60;99.90
2459;DHT22;1241;50.920;6.936;2023-02-14T13:09:46;11.70;99.90
2459;DHT22;1241;50.920;6.936;2023-02-14T13:17:46;11.80;99.90
2459;DHT22;1241;50.920;6.936;2023-02-14T13:22:56;11.90;99.90
2459;DHT22;1241;50.920;6.936;2023-02-14T13:25:29;11.90;99.90
2459;DHT22;1241;50.920;6.936;2023-02-14T13:28:00;11.90;99.90
2459;DHT22;1241;50.920;6.936;2023-02-14T13:30:33;11.80;99.90
2459;DHT22;1241;50.920;6.936;2023-02-14T13:33:06;11.80;99.90
2459;DHT22;1241;50.920;6.936;2023-02-14T13:35:33;11.80;99.90
2459;DHT22;1241;50.920;6.936;2023-02-14T13:38:02;11.90;99.90
2459;DHT22;1241;50.920;6.936;2023-02-14T13:40:30;12.00;99.90
2459;DHT22;1241;50.920;6.936;2023-02-14T13:43:00;12.00;99.90
2459;DHT22;1241;50.920;6.936;2023-02-14T13:48:12;12.10;99.90
2459;DHT22;1241;50.920;6.936;2023-02-14T13:56:04;12.30;99.90
2459;DHT22;1241;50.920;6.936;2023-02-14T13:58:30;12.30;99.90
2459;DHT22;1241;50.920;6.936;2023-02-14T14:00:57;12.40;99.90
2459;DHT22;1241;50.920;6.936;2023-02-14T14:06:11;12.20;99.90
2459;DHT22;1241;50.920;6.936;2023-02-14T14:08:42;12.20;99.90
2459;DHT22;1241;50.920;6.936;2023-02-14T14:11:15;12.30;99.90
2459;DHT22;1241;50.920;6.936;2023-02-14T14:14:00;12.20;99.90
2459;DHT22;1241;50.920;6.936;2023-02-14T14:16:29;12.20;99.90
2459;DHT22;1241;50.920;6.936;2023-02-14T14:21:30;12.30;99.90
2459;DHT22;1241;50.920;6.936;2023-02-14T14:24:21;12.30;99.90
2459;DHT22;1241;50.920;6.936;2023-02-14T14:27:11;12.40;99.90
2459;DHT22;1241;50.920;6.936;2023-02-14T14:29:43;12.50;99.90
2459;DHT22;1241;50.920;6.936;2023-02-14T14:35:05;12.50;99.90
2459;DHT22;1241;50.920;6.936;2023-02-14T14:37:34;12.30;99.90
2459;DHT22;1241;50.920;6.936;2023-02-14T14:40:03;12.30;99.90
2459;DHT22;1241;50.920;6.936;2023-02-14T14:42:39;12.30;99.90
2459;DHT22;1241;50.920;6.936;2023-02-14T14:45:28;12.30;99.90
2459;DHT22;1241;50.920;6.936;2023-02-14T14:47:55;12.20;99.90
2459;DHT22;1241;50.920;6.936;2023-02-14T14:52:52;12.10;99.90
2459;DHT22;1241;50.920;6.936;2023-02-14T14:55:23;12.10;99.90
2459;DHT22;1241;50.920;6.936;2023-02-14T14:57:51;12.10;99.90
2459;DHT22;1241;50.920;6.936;2023-02-14T15:05:40;12.50;99.90
2459;DHT22;1241;50.920;6.936;2023-02-14T15:08:35;12.50;99.90
2459;DHT22;1241;50.920;6.936;2023-02-14T15:11:05;12.60;99.90
2459;DHT22;1241;50.920;6.936;2023-02-14T15:13:37;12.50;99.90
2459;DHT22;1241;50.920;6.936;2023-02-14T15:16:43;12.50;99.90
2459;DHT22;1241;50.920;6.936;2023-02-14T15:19:22;12.50;99.90
2459;DHT22;1241;50.920;6.936;2023-02-14T15:21:56;12.40;99.90
2459;DHT22;1241;50.920;6.936;2023-02-14T15:24:22;12.40;99.90
2459;DHT22;1241;50.920;6.936;2023-02-14T15:26:48;12.30;99.90
2459;DHT22;1241;50.920;6.936;2023-02-14T15:29:23;12.20;99.90
2459;DHT22;1241;50.920;6.936;2023-02-14T15:31:50;12.00;99.90
2459;DHT22;1241;50.920;6.936;2023-02-14T15:34:29;12.00;99.90
2459;DHT22;1241;50.920;6.936;2023-02-14T15:36:56;11.90;99.90
2459;DHT22;1241;50.920;6.936;2023-02-14T15:39:35;11.80;99.90
2459;DHT22;1241;50.920;6.936;2023-02-14T15:42:03;11.80;99.90
2459;DHT22;1241;50.920;6.936;2023-02-14T15:44:30;11.70;99.90
2459;DHT22;1241;50.920;6.936;2023-02-14T15:47:01;11.60;99.90
2459;DHT22;1241;50.920;6.936;2023-02-14T15:49:34;11.60;99.90
2459;DHT22;1241;50.920;6.936;2023-02-14T15:52:04;11.50;99.90
2459;DHT22;1241;50.920;6.936;2023-02-14T15:54:40;11.50;99.90
2459;DHT22;1241;50.920;6.936;2023-02-14T15:57:18;11.40;99.90
2459;DHT22;1241;50.920;6.936;2023-02-14T15:59:45;11.40;99.90
2459;DHT22;1241;50.920;6.936;2023-02-14T16:02:17;11.30;99.90
2459;DHT22;1241;50.920;6.936;2023-02-14T16:04:45;11.20;99.90
2459;DHT22;1241;50.920;6.936;2023-02-14T16:07:28;11.20;99.90
2459;DHT22;1241;50.920;6.936;2023-02-14T16:10:33;11.10;99.90
2459;DHT22;1241;50.920;6.936;2023-02-14T16:13:03;11.00;99.90
2459;DHT22;1241;50.920;6.936;2023-02-14T16:15:57;10.90;99.90
2459;DHT22;1241;50.920;6.936;2023-02-14T16:18:44;10.80;99.90
2459;DHT22;1241;50.920;6.936;2023-02-14T16:23:37;10.70;99.90
2459;DHT22;1241;50.920;6.936;2023-02-14T16:26:07;10.70;99.90
2459;DHT22;1241;50.920;6.936;2023-02-14T16:28:33;10.60;99.90
2459;DHT22;1241;50.920;6.936;2023-02-14T16:31:02;10.50;99.90
2459;DHT22;1241;50.920;6.936;2023-02-14T16:33:34;10.30;99.90
2459;DHT22;1241;50.920;6.936;2023-02-14T16:38:49;10.20;99.90
2459;DHT22;1241;50.920;6.936;2023-02-14T16:41:20;10.10;99.90
2459;DHT22;1241;50.920;6.936;2023-02-14T16:43:47;10.00;99.90
2459;DHT22;1241;50.920;6.936;2023-02-14T16:46:15;10.00;99.90
2459;DHT22;1241;50.920;6.936;2023-02-14T16:48:41;9.90;99.90
2459;DHT22;1241;50.920;6.936;2023-02-14T16:51:12;9.80;99.90
2459;DHT22;1241;50.920;6.936;2023-02-14T16:53:39;9.80;99.90
2459;DHT22;1241;50.920;6.936;2023-02-14T16:56:08;9.80;99.90
2459;DHT22;1241;50.920;6.936;2023-02-14T16:58:37;9.70;99.90
2459;DHT22;1241;50.920;6.936;2023-02-14T17:01:03;9.60;99.90
2459;DHT22;1241;50.920;6.936;2023-02-14T17:03:29;9.50;99.90
2459;DHT22;1241;50.920;6.936;2023-02-14T17:05:55;9.40;99.90
2459;DHT22;1241;50.920;6.936;2023-02-14T17:08:22;9.30;99.90
2459;DHT22;1241;50.920;6.936;2023-02-14T17:10:48;9.30;99.90
2459;DHT22;1241;50.920;6.936;2023-02-14T17:13:20;9.20;99.90
2459;DHT22;1241;50.920;6.936;2023-02-14T17:15:47;9.10;99.90
2459;DHT22;1241;50.920;6.936;2023-02-14T17:18:14;9.00;99.90
2459;DHT22;1241;50.920;6.936;2023-02-14T17:20:42;8.90;99.90
2459;DHT22;1241;50.920;6.936;2023-02-14T17:23:08;8.80;99.90
2459;DHT22;1241;50.920;6.936;2023-02-14T17:25:33;8.90;99.90
2459;DHT22;1241;50.920;6.936;2023-02-14T17:28:00;8.80;99.90
2459;DHT22;1241;50.920;6.936;2023-02-14T17:30:25;8.70;99.90
2459;DHT22;1241;50.920;6.936;2023-02-14T17:32:51;8.60;99.90
2459;DHT22;1241;50.920;6.936;2023-02-14T17:35:18;8.60;99.90
2459;DHT22;1241;50.920;6.936;2023-02-14T17:37:44;8.60;99.90
2459;DHT22;1241;50.920;6.936;2023-02-14T17:40:10;8.50;99.90
2459;DHT22;1241;50.920;6.936;2023-02-14T17:42:36;8.50;99.90
2459;DHT22;1241;50.920;6.936;2023-02-14T17:45:03;8.40;99.90
2459;DHT22;1241;50.920;6.936;2023-02-14T17:47:31;8.40;99.90
2459;DHT22;1241;50.920;6.936;2023-02-14T17:49:57;8.30;99.90
2459;DHT22;1241;50.920;6.936;2023-02-14T17:52:23;8.20;99.90
2459;DHT22;1241;50.920;6.936;2023-02-14T17:54:49;8.10;99.90
2459;DHT22;1241;50.920;6.936;2023-02-14T17:57:16;8.10;99.90
2459;DHT22;1241;50.920;6.936;2023-02-14T17:59:42;8.00;99.90
2459;DHT22;1241;50.920;6.936;2023-02-14T18:02:09;7.80;99.90
2459;DHT22;1241;50.920;6.936;2023-02-14T18:04:35;7.80;99.90
2459;DHT22;1241;50.920;6.936;2023-02-14T18:07:02;7.70;99.90
2459;DHT22;1241;50.920;6.936;2023-02-14T18:09:28;7.70;99.90
2459;DHT22;1241;50.920;6.936;2023-02-14T18:11:55;7.60;99.90
2459;DHT22;1241;50.920;6.936;2023-02-14T18:14:20;7.50;99.90
2459;DHT22;1241;50.920;6.936;2023-02-14T18:16:47;7.40;99.90
2459;DHT22;1241;50.920;6.936;2023-02-14T18:19:13;7.40;99.90
2459;DHT22;1241;50.920;6.936;2023-02-14T18:21:43;7.30;99.90
2459;DHT22;1241;50.920;6.936;2023-02-14T18:24:10;7.30;99.90
2459;DHT22;1241;50.920;6.936;2023-02-14T18:26:38;7.10;99.90
2459;DHT22;1241;50.920;6.936;2023-02-14T18:29:06;7.00;99.90
2459;DHT22;1241;50.920;6.936;2023-02-14T18:31:37;7.00;99.90
2459;DHT22;1241;50.920;6.936;2023-02-14T18:34:03;6.90;99.90
2459;DHT22;1241;50.920;6.936;2023-02-14T18:36:30;6.80;99.90
2459;DHT22;1241;50.920;6.936;2023-02-14T18:38:57;6.70;99.90
2459;DHT22;1241;50.920;6.936;2023-02-14T18:41:24;6.60;99.90
2459;DHT22;1241;50.920;6.936;2023-02-14T18:43:50;6.60;99.90
2459;DHT22;1241;50.920;6.936;2023-02-14T18:46:28;6.50;99.90